sensor_id;sensor_type;location;lat;lon;timestamp;temperature;humidity
4314;DHT22;2170;48.794;9.182;2023-06-14T00:01:35;17.60;83.40
4314;DHT22;2170;48.794;9.182;2023-06-14T00:04:23;17.60;84.10
4314;DHT22;2170;48.794;9.182;2023-06-14T00:10:35;17.70;85.30
4314;DHT22;2170;48.794;9.182;2023-06-14T00:13:20;17.50;85.50
4314;DHT22;2170;48.794;9.182;2023-06-14T00:15:53;17.50;86.90
4314;DHT22;2170;48.794;9.182;2023-06-14T00:18:26;17.40;87.50
4314;DHT22;2170;48.794;9.182;2023-06-14T00:21:03;17.30;88.70
4314;DHT22;2170;48.794;9.182;2023-06-14T00:23:35;17.30;90.20
4314;DHT22;2170;48.794;9.182;2023-06-14T00:26:23;17.20;90.70
4314;DHT22;2170;48.794;9.182;2023-06-14T00:29:00;17.00;91.20
4314;DHT22;2170;48.794;9.182;2023-06-14T00:31:34;16.90;91.20
4314;DHT22;2170;48.794;9.182;2023-06-14T00:34:09;16.90;91.30
4314;DHT22;2170;48.794;9.182;2023-06-14T00:36:51;16.90;91.60
4314;DHT22;2170;48.794;9.182;2023-06-14T00:39:36;16.90;91.80
4314;DHT22;2170;48.794;9.182;2023-06-14T00:42:11;16.80;91.60
4314;DHT22;2170;48.794;9.182;2023-06-14T00:45:05;16.80;91.40
4314;DHT22;2170;48.794;9.182;2023-06-14T00:47:38;16.90;91.70
4314;DHT22;2170;48.794;9.182;2023-06-14T00:50:18;16.90;92.40
4314;DHT22;2170;48.794;9.182;2023-06-14T00:53:05;17.20;92.80
4314;DHT22;2170;48.794;9.182;2023-06-14T00:55:38;16.80;93.20
4314;DHT22;2170;48.794;9.182;2023-06-14T00:58:48;16.70;93.80
4314;DHT22;2170;48.794;9.182;2023-06-14T01:01:30;16.60;94.20
4314;DHT22;2170;48.794;9.182;2023-06-14T01:04:19;16.60;95.40
4314;DHT22;2170;48.794;9.182;2023-06-14T01:07:04;16.60;95.60
4314;DHT22;2170;48.794;9.182;2023-06-14T01:10:17;16.50;96.50
4314;DHT22;2170;48.794;9.182;2023-06-14T01:13:15;16.50;96.80
4314;DHT22;2170;48.794;9.182;2023-06-14T01:15:59;16.40;97.00
4314;DHT22;2170;48.794;9.182;2023-06-14T01:18:45;16.30;98.10
4314;DHT22;2170;48.794;9.182;2023-06-14T01:21:33;16.30;98.90
4314;DHT22;2170;48.794;9.182;2023-06-14T01:25:03;16.20;99.10
4314;DHT22;2170;48.794;9.182;2023-06-14T01:27:52;16.10;99.90
4314;DHT22;2170;48.794;9.182;2023-06-14T01:34:47;16.10;99.90
4314;DHT22;2170;48.794;9.182;2023-06-14T01:44:05;16.00;99.90
4314;DHT22;2170;48.794;9.182;2023-06-14T01:47:20;16.00;99.90
4314;DHT22;2170;48.794;9.182;2023-06-14T01:50:24;16.00;99.90
4314;DHT22;2170;48.794;9.182;2023-06-14T01:53:45;15.90;99.90
4314;DHT22;2170;48.794;9.182;2023-06-14T01:57:24;15.80;99.90
4314;DHT22;2170;48.794;9.182;2023-06-14T02:14:33;15.70;99.90
4314;DHT22;2170;48.794;9.182;2023-06-14T02:20:36;15.60;99.90
4314;DHT22;2170;48.794;9.182;2023-06-14T02:23:30;15.50;99.90
4314;DHT22;2170;48.794;9.182;2023-06-14T02:26:15;15.50;99.90
4314;DHT22;2170;48.794;9.182;2023-06-14T02:29:09;15.50;99.90
4314;DHT22;2170;48.794;9.182;2023-06-14T02:35:10;15.40;99.90
4314;DHT22;2170;48.794;9.182;2023-06-14T02:41:30;15.40;99.90
4314;DHT22;2170;48.794;9.182;2023-06-14T02:47:21;15.20;99.90
4314;DHT22;2170;48.794;9.182;2023-06-14T02:50:05;15.30;99.90
4314;DHT22;2170;48.794;9.182;2023-06-14T02:52:43;15.30;99.90
4314;DHT22;2170;48.794;9.182;2023-06-14T02:55:21;15.30;99.90
4314;DHT22;2170;48.794;9.182;2023-06-14T03:00:46;15.10;99.90
4314;DHT22;2170;48.794;9.182;2023-06-14T03:03:27;15.00;99.90
4314;DHT22;2170;48.794;9.182;2023-06-14T03:06:08;15.10;99.90
4314;DHT22;2170;48.794;9.182;2023-06-14T03:08:43;15.00;99.90
4314;DHT22;2170;48.794;9.182;2023-06-14T03:11:22;15.10;99.90
4314;DHT22;2170;48.794;9.182;2023-06-14T03:14:01;15.20;99.90
4314;DHT22;2170;48.794;9.182;2023-06-14T03:16:35;15.10;99.90
4314;DHT22;2170;48.794;9.182;2023-06-14T03:19:13;15.10;99.90
4314;DHT22;2170;48.794;9.182;2023-06-14T03:21:45;15.20;99.90
4314;DHT22;2170;48.794;9.182;2023-06-14T03:24:26;15.10;99.90
4314;DHT22;2170;48.794;9.182;2023-06-14T03:27:03;15.10;99.90
4314;DHT22;2170;48.794;9.182;2023-06-14T03:29:45;15.10;99.90
4314;DHT22;2170;48.794;9.182;2023-06-14T03:32:17;15.00;99.90
4314;DHT22;2170;48.794;9.182;2023-06-14T03:35:00;15.00;99.90
4314;DHT22;2170;48.794;9.182;2023-06-14T03:37:39;15.00;99.90
4314;DHT22;2170;48.794;9.182;2023-06-14T03:40:24;15.00;99.90
4314;DHT22;2170;48.794;9.182;2023-06-14T03:46:05;14.90;99.90
4314;DHT22;2170;48.794;9.182;2023-06-14T03:48:39;14.90;99.90
4314;DHT22;2170;48.794;9.182;2023-06-14T03:51:22;14.90;99.90
4314;DHT22;2170;48.794;9.182;2023-06-14T03:53:52;15.00;99.90
4314;DHT22;2170;48.794;9.182;2023-06-14T03:56:26;15.00;99.90
4314;DHT22;2170;48.794;9.182;2023-06-14T03:59:03;14.90;99.90
4314;DHT22;2170;48.794;9.182;2023-06-14T04:01:51;14.90;99.90
4314;DHT22;2170;48.794;9.182;2023-06-14T04:04:31;14.90;99.90
4314;DHT22;2170;48.794;9.182;2023-06-14T04:07:09;14.90;99.90
4314;DHT22;2170;48.794;9.182;2023-06-14T04:09:41;15.00;99.90
4314;DHT22;2170;48.794;9.182;2023-06-14T04:12:30;15.00;99.90
4314;DHT22;2170;48.794;9.182;2023-06-14T04:15:30;15.10;99.90
4314;DHT22;2170;48.794;9.182;2023-06-14T04:28:26;15.10;99.90
4314;DHT22;2170;48.794;9.182;2023-06-14T04:31:29;15.20;99.90
4314;DHT22;2170;48.794;9.182;2023-06-14T04:34:35;15.20;99.90
4314;DHT22;2170;48.794;9.182;2023-06-14T04:40:22;15.30;99.90
4314;DHT22;2170;48.794;9.182;2023-06-14T04:43:15;15.30;99.90
4314;DHT22;2170;48.794;9.182;2023-06-14T04:49:01;15.40;99.90
4314;DHT22;2170;48.794;9.182;2023-06-14T04:51:32;15.80;99.90
4314;DHT22;2170;48.794;9.182;2023-06-14T04:54:01;15.50;99.90
4314;DHT22;2170;48.794;9.182;2023-06-14T04:56:43;15.70;99.90
4314;DHT22;2170;48.794;9.182;2023-06-14T04:59:13;15.80;99.90
4314;DHT22;2170;48.794;9.182;2023-06-14T05:01:45;15.90;99.90
4314;DHT22;2170;48.794;9.182;2023-06-14T05:04:18;16.00;99.90
4314;DHT22;2170;48.794;9.182;2023-06-14T05:07:01;16.20;99.90
4314;DHT22;2170;48.794;9.182;2023-06-14T05:09:29;16.20;99.90
4314;DHT22;2170;48.794;9.182;2023-06-14T05:11:57;16.20;99.90
4314;DHT22;2170;48.794;9.182;2023-06-14T05:14:26;16.20;99.90
4314;DHT22;2170;48.794;9.182;2023-06-14T05:16:54;16.50;99.90
4314;DHT22;2170;48.794;9.182;2023-06-14T05:19:25;16.40;99.90
4314;DHT22;2170;48.794;9.182;2023-06-14T05:21:56;16.50;99.90
4314;DHT22;2170;48.794;9.182;2023-06-14T05:24:26;16.60;99.90
4314;DHT22;2170;48.794;9.182;2023-06-14T05:26:58;16.70;99.90
4314;DHT22;2170;48.794;9.182;2023-06-14T05:29:27;16.70;99.90
4314;DHT22;2170;48.794;9.182;2023-06-14T05:31:57;16.80;99.90
4314;DHT22;2170;48.794;9.182;2023-06-14T05:34:30;16.80;99.90
4314;DHT22;2170;48.794;9.182;2023-06-14T05:36:59;16.90;99.90
4314;DHT22;2170;48.794;9.182;2023-06-14T05:39:43;17.10;99.90
4314;DHT22;2170;48.794;9.182;2023-06-14T05:42:13;17.20;99.90
4314;DHT22;2170;48.794;9.182;2023-06-14T05:44:42;17.30;99.90
4314;DHT22;2170;48.794;9.182;2023-06-14T05:47:09;17.40;99.90
4314;DHT22;2170;48.794;9.182;2023-06-14T05:49:40;17.50;99.90
4314;DHT22;2170;48.794;9.182;2023-06-14T05:52:09;17.40;99.90
4314;DHT22;2170;48.794;9.182;2023-06-14T05:54:39;17.40;99.90
4314;DHT22;2170;48.794;9.182;2023-06-14T05:57:17;17.50;99.90
4314;DHT22;2170;48.794;9.182;2023-06-14T05:59:46;17.70;99.90
4314;DHT22;2170;48.794;9.182;2023-06-14T06:02:17;17.80;99.90
4314;DHT22;2170;48.794;9.182;2023-06-14T06:04:49;17.90;99.90
4314;DHT22;2170;48.794;9.182;2023-06-14T06:07:17;17.90;99.90
4314;DHT22;2170;48.794;9.182;2023-06-14T06:09:46;17.70;99.90
4314;DHT22;2170;48.794;9.182;2023-06-14T06:12:14;17.80;99.90
4314;DHT22;2170;48.794;9.182;2023-06-14T06:14:45;17.70;99.90
4314;DHT22;2170;48.794;9.182;2023-06-14T06:17:19;17.80;99.90
4314;DHT22;2170;48.794;9.182;2023-06-14T06:19:50;18.10;99.90
4314;DHT22;2170;48.794;9.182;2023-06-14T06:22:22;18.30;99.90
4314;DHT22;2170;48.794;9.182;2023-06-14T06:24:56;18.10;99.90
4314;DHT22;2170;48.794;9.182;2023-06-14T06:27:29;18.20;99.90
4314;DHT22;2170;48.794;9.182;2023-06-14T06:30:00;18.30;99.90
4314;DHT22;2170;48.794;9.182;2023-06-14T06:32:35;18.40;99.90
4314;DHT22;2170;48.794;9.182;2023-06-14T06:35:07;18.60;99.90
4314;DHT22;2170;48.794;9.182;2023-06-14T06:37:37;18.70;99.90
4314;DHT22;2170;48.794;9.182;2023-06-14T06:40:08;18.70;99.90
4314;DHT22;2170;48.794;9.182;2023-06-14T06:42:41;18.50;99.90
4314;DHT22;2170;48.794;9.182;2023-06-14T06:45:15;18.70;99.90
4314;DHT22;2170;48.794;9.182;2023-06-14T06:47:46;18.90;99.90
4314;DHT22;2170;48.794;9.182;2023-06-14T06:50:17;19.20;99.90
4314;DHT22;2170;48.794;9.182;2023-06-14T06:52:50;19.10;99.90
4314;DHT22;2170;48.794;9.182;2023-06-14T06:55:21;19.00;99.90
4314;DHT22;2170;48.794;9.182;2023-06-14T06:57:49;19.10;99.90
4314;DHT22;2170;48.794;9.182;2023-06-14T07:00:19;19.20;99.90
4314;DHT22;2170;48.794;9.182;2023-06-14T07:02:48;19.40;99.90
4314;DHT22;2170;48.794;9.182;2023-06-14T07:05:23;19.60;99.90
4314;DHT22;2170;48.794;9.182;2023-06-14T07:07:55;19.60;99.90
4314;DHT22;2170;48.794;9.182;2023-06-14T07:10:24;19.50;99.90
4314;DHT22;2170;48.794;9.182;2023-06-14T07:13:06;19.70;99.90
4314;DHT22;2170;48.794;9.182;2023-06-14T07:15:43;19.80;99.90
4314;DHT22;2170;48.794;9.182;2023-06-14T07:18:20;19.80;99.90
4314;DHT22;2170;48.794;9.182;2023-06-14T07:20:50;19.80;99.90
4314;DHT22;2170;48.794;9.182;2023-06-14T07:23:20;19.90;99.90
4314;DHT22;2170;48.794;9.182;2023-06-14T07:25:48;20.10;99.90
4314;DHT22;2170;48.794;9.182;2023-06-14T07:28:17;20.20;99.50
4314;DHT22;2170;48.794;9.182;2023-06-14T07:30:45;20.10;98.10
4314;DHT22;2170;48.794;9.182;2023-06-14T07:33:14;20.10;98.90
4314;DHT22;2170;48.794;9.182;2023-06-14T07:35:44;20.30;98.40
4314;DHT22;2170;48.794;9.182;2023-06-14T07:38:14;20.40;98.90
4314;DHT22;2170;48.794;9.182;2023-06-14T07:40:46;20.40;98.20
4314;DHT22;2170;48.794;9.182;2023-06-14T07:43:16;20.50;97.40
4314;DHT22;2170;48.794;9.182;2023-06-14T07:45:44;20.60;98.10
4314;DHT22;2170;48.794;9.182;2023-06-14T07:48:12;20.60;98.10
4314;DHT22;2170;48.794;9.182;2023-06-14T07:50:42;20.60;97.90
4314;DHT22;2170;48.794;9.182;2023-06-14T07:53:21;20.70;98.40
4314;DHT22;2170;48.794;9.182;2023-06-14T07:55:49;20.90;98.30
4314;DHT22;2170;48.794;9.182;2023-06-14T07:58:24;20.90;97.50
4314;DHT22;2170;48.794;9.182;2023-06-14T08:00:53;21.00;97.80
4314;DHT22;2170;48.794;9.182;2023-06-14T08:03:22;21.00;98.40
4314;DHT22;2170;48.794;9.182;2023-06-14T08:05:54;21.10;98.60
4314;DHT22;2170;48.794;9.182;2023-06-14T08:08:25;21.20;99.00
4314;DHT22;2170;48.794;9.182;2023-06-14T08:10:57;21.30;98.90
4314;DHT22;2170;48.794;9.182;2023-06-14T08:13:26;21.40;98.60
4314;DHT22;2170;48.794;9.182;2023-06-14T08:15:57;21.30;99.00
4314;DHT22;2170;48.794;9.182;2023-06-14T08:18:29;21.40;98.90
4314;DHT22;2170;48.794;9.182;2023-06-14T08:20:58;21.20;99.90
4314;DHT22;2170;48.794;9.182;2023-06-14T08:23:31;21.20;99.90
4314;DHT22;2170;48.794;9.182;2023-06-14T08:26:03;21.60;99.70
4314;DHT22;2170;48.794;9.182;2023-06-14T08:28:37;21.50;99.10
4314;DHT22;2170;48.794;9.182;2023-06-14T08:31:06;21.70;99.70
4314;DHT22;2170;48.794;9.182;2023-06-14T08:33:37;21.60;99.70
4314;DHT22;2170;48.794;9.182;2023-06-14T08:36:09;21.90;98.60
4314;DHT22;2170;48.794;9.182;2023-06-14T08:38:40;22.10;98.40
4314;DHT22;2170;48.794;9.182;2023-06-14T08:41:09;22.10;97.10
4314;DHT22;2170;48.794;9.182;2023-06-14T08:43:39;22.20;97.70
4314;DHT22;2170;48.794;9.182;2023-06-14T08:46:08;22.40;98.00
4314;DHT22;2170;48.794;9.182;2023-06-14T08:48:43;22.30;97.00
4314;DHT22;2170;48.794;9.182;2023-06-14T08:51:12;22.40;97.10
4314;DHT22;2170;48.794;9.182;2023-06-14T08:53:45;22.50;97.20
4314;DHT22;2170;48.794;9.182;2023-06-14T08:56:26;22.70;97.60
4314;DHT22;2170;48.794;9.182;2023-06-14T08:58:59;22.80;96.70
4314;DHT22;2170;48.794;9.182;2023-06-14T09:01:46;23.00;96.20
4314;DHT22;2170;48.794;9.182;2023-06-14T09:04:19;23.00;95.90
4314;DHT22;2170;48.794;9.182;2023-06-14T09:06:48;23.00;95.90
4314;DHT22;2170;48.794;9.182;2023-06-14T09:09:26;23.10;95.60
4314;DHT22;2170;48.794;9.182;2023-06-14T09:11:55;23.30;95.30
4314;DHT22;2170;48.794;9.182;2023-06-14T09:14:24;23.40;95.50
4314;DHT22;2170;48.794;9.182;2023-06-14T09:16:53;23.20;95.20
4314;DHT22;2170;48.794;9.182;2023-06-14T09:19:25;23.10;95.00
4314;DHT22;2170;48.794;9.182;2023-06-14T09:21:54;23.40;94.60
4314;DHT22;2170;48.794;9.182;2023-06-14T09:24:32;22.90;94.60
4314;DHT22;2170;48.794;9.182;2023-06-14T09:27:01;23.30;95.20
4314;DHT22;2170;48.794;9.182;2023-06-14T09:29:33;23.50;94.40
4314;DHT22;2170;48.794;9.182;2023-06-14T09:32:06;23.40;94.10
4314;DHT22;2170;48.794;9.182;2023-06-14T09:34:35;23.60;94.60
4314;DHT22;2170;48.794;9.182;2023-06-14T09:37:07;24.10;93.30
4314;DHT22;2170;48.794;9.182;2023-06-14T09:39:51;23.80;93.10
4314;DHT22;2170;48.794;9.182;2023-06-14T09:42:20;24.20;93.00
4314;DHT22;2170;48.794;9.182;2023-06-14T09:44:53;24.10;93.20
4314;DHT22;2170;48.794;9.182;2023-06-14T09:47:22;24.60;93.10
4314;DHT22;2170;48.794;9.182;2023-06-14T09:49:51;25.10;91.20
4314;DHT22;2170;48.794;9.182;2023-06-14T09:52:21;25.30;91.00
4314;DHT22;2170;48.794;9.182;2023-06-14T09:54:51;25.70;89.40
4314;DHT22;2170;48.794;9.182;2023-06-14T09:57:22;25.50;88.60
4314;DHT22;2170;48.794;9.182;2023-06-14T09:59:57;25.40;88.80
4314;DHT22;2170;48.794;9.182;2023-06-14T10:02:38;25.20;85.10
4314;DHT22;2170;48.794;9.182;2023-06-14T10:05:11;25.50;84.30
4314;DHT22;2170;48.794;9.182;2023-06-14T10:07:48;25.70;87.40
4314;DHT22;2170;48.794;9.182;2023-06-14T10:10:23;25.50;87.10
4314;DHT22;2170;48.794;9.182;2023-06-14T10:13:20;25.20;86.40
4314;DHT22;2170;48.794;9.182;2023-06-14T10:18:48;25.10;86.50
4314;DHT22;2170;48.794;9.182;2023-06-14T10:21:26;25.30;80.80
4314;DHT22;2170;48.794;9.182;2023-06-14T10:23:57;24.90;80.30
4314;DHT22;2170;48.794;9.182;2023-06-14T10:26:29;25.10;81.10
4314;DHT22;2170;48.794;9.182;2023-06-14T10:28:59;25.50;77.60
4314;DHT22;2170;48.794;9.182;2023-06-14T10:31:42;25.30;82.00
4314;DHT22;2170;48.794;9.182;2023-06-14T10:34:11;25.30;81.80
4314;DHT22;2170;48.794;9.182;2023-06-14T10:36:42;25.50;80.40
4314;DHT22;2170;48.794;9.182;2023-06-14T10:39:14;25.60;81.10
4314;DHT22;2170;48.794;9.182;2023-06-14T10:41:55;26.10;78.20
4314;DHT22;2170;48.794;9.182;2023-06-14T10:44:40;25.70;79.30
4314;DHT22;2170;48.794;9.182;2023-06-14T10:47:10;26.50;77.40
4314;DHT22;2170;48.794;9.182;2023-06-14T10:49:43;26.90;74.60
4314;DHT22;2170;48.794;9.182;2023-06-14T10:52:27;27.00;74.50
4314;DHT22;2170;48.794;9.182;2023-06-14T10:55:06;26.60;72.20
4314;DHT22;2170;48.794;9.182;2023-06-14T10:57:49;26.40;73.50
4314;DHT22;2170;48.794;9.182;2023-06-14T11:00:28;27.00;71.90
4314;DHT22;2170;48.794;9.182;2023-06-14T11:06:14;27.30;69.90
4314;DHT22;2170;48.794;9.182;2023-06-14T11:09:24;27.50;66.70
4314;DHT22;2170;48.794;9.182;2023-06-14T11:12:04;27.90;66.60
4314;DHT22;2170;48.794;9.182;2023-06-14T11:14:39;27.90;65.20
4314;DHT22;2170;48.794;9.182;2023-06-14T11:17:11;27.70;64.10
4314;DHT22;2170;48.794;9.182;2023-06-14T11:19:43;26.90;65.70
4314;DHT22;2170;48.794;9.182;2023-06-14T11:22:17;27.20;65.00
4314;DHT22;2170;48.794;9.182;2023-06-14T11:24:47;27.60;64.00
4314;DHT22;2170;48.794;9.182;2023-06-14T11:27:16;28.20;62.00
4314;DHT22;2170;48.794;9.182;2023-06-14T11:29:51;28.30;61.20
4314;DHT22;2170;48.794;9.182;2023-06-14T11:32:23;27.80;59.20
4314;DHT22;2170;48.794;9.182;2023-06-14T11:35:25;28.20;59.70
4314;DHT22;2170;48.794;9.182;2023-06-14T11:38:22;28.50;58.70
4314;DHT22;2170;48.794;9.182;2023-06-14T11:41:08;28.60;58.30
4314;DHT22;2170;48.794;9.182;2023-06-14T11:43:45;28.10;59.90
4314;DHT22;2170;48.794;9.182;2023-06-14T11:47:43;28.20;59.90
4314;DHT22;2170;48.794;9.182;2023-06-14T11:49:50;28.70;59.30
4314;DHT22;2170;48.794;9.182;2023-06-14T11:52:26;28.50;58.10
4314;DHT22;2170;48.794;9.182;2023-06-14T11:55:19;27.60;56.20
4314;DHT22;2170;48.794;9.182;2023-06-14T11:58:28;27.60;57.80
4314;DHT22;2170;48.794;9.182;2023-06-14T12:01:45;27.70;58.30
4314;DHT22;2170;48.794;9.182;2023-06-14T12:03:54;28.20;57.80
4314;DHT22;2170;48.794;9.182;2023-06-14T12:06:30;28.80;57.40
4314;DHT22;2170;48.794;9.182;2023-06-14T12:09:04;27.50;58.80
4314;DHT22;2170;48.794;9.182;2023-06-14T12:11:39;27.30;60.40
4314;DHT22;2170;48.794;9.182;2023-06-14T12:14:17;28.00;58.90
4314;DHT22;2170;48.794;9.182;2023-06-14T12:17:03;27.70;58.80
4314;DHT22;2170;48.794;9.182;2023-06-14T12:20:28;27.90;58.10
4314;DHT22;2170;48.794;9.182;2023-06-14T12:22:53;26.90;59.00
4314;DHT22;2170;48.794;9.182;2023-06-14T12:25:28;27.10;58.80
4314;DHT22;2170;48.794;9.182;2023-06-14T12:28:12;28.00;57.30
4314;DHT22;2170;48.794;9.182;2023-06-14T12:30:45;27.50;57.60
4314;DHT22;2170;48.794;9.182;2023-06-14T12:33:14;27.50;58.40
4314;DHT22;2170;48.794;9.182;2023-06-14T12:35:46;28.00;58.80
4314;DHT22;2170;48.794;9.182;2023-06-14T12:38:30;28.80;57.00
4314;DHT22;2170;48.794;9.182;2023-06-14T12:41:04;29.20;57.00
4314;DHT22;2170;48.794;9.182;2023-06-14T12:43:33;28.60;57.50
4314;DHT22;2170;48.794;9.182;2023-06-14T12:46:04;27.50;58.40
4314;DHT22;2170;48.794;9.182;2023-06-14T12:48:33;27.20;59.30
4314;DHT22;2170;48.794;9.182;2023-06-14T12:51:03;27.40;59.10
4314;DHT22;2170;48.794;9.182;2023-06-14T12:53:32;27.30;58.90
4314;DHT22;2170;48.794;9.182;2023-06-14T12:56:01;27.90;58.10
4314;DHT22;2170;48.794;9.182;2023-06-14T12:58:30;28.60;57.50
4314;DHT22;2170;48.794;9.182;2023-06-14T13:00:59;28.20;56.50
4314;DHT22;2170;48.794;9.182;2023-06-14T13:03:28;28.40;57.40
4314;DHT22;2170;48.794;9.182;2023-06-14T13:05:59;28.40;55.60
4314;DHT22;2170;48.794;9.182;2023-06-14T13:08:29;28.10;55.90
4314;DHT22;2170;48.794;9.182;2023-06-14T13:11:00;28.30;55.50
4314;DHT22;2170;48.794;9.182;2023-06-14T13:13:30;28.90;55.10
4314;DHT22;2170;48.794;9.182;2023-06-14T13:16:12;29.60;54.70
4314;DHT22;2170;48.794;9.182;2023-06-14T13:19:04;29.80;53.80
4314;DHT22;2170;48.794;9.182;2023-06-14T13:21:35;29.70;54.70
4314;DHT22;2170;48.794;9.182;2023-06-14T13:24:17;29.80;54.20
4314;DHT22;2170;48.794;9.182;2023-06-14T13:26:49;29.30;54.60
4314;DHT22;2170;48.794;9.182;2023-06-14T13:29:29;29.70;55.50
4314;DHT22;2170;48.794;9.182;2023-06-14T13:32:07;30.00;54.50
4314;DHT22;2170;48.794;9.182;2023-06-14T13:34:50;29.90;55.10
4314;DHT22;2170;48.794;9.182;2023-06-14T13:37:24;29.60;55.70
4314;DHT22;2170;48.794;9.182;2023-06-14T13:40:11;29.20;55.70
4314;DHT22;2170;48.794;9.182;2023-06-14T13:42:48;29.60;54.60
4314;DHT22;2170;48.794;9.182;2023-06-14T13:45:26;29.80;55.20
4314;DHT22;2170;48.794;9.182;2023-06-14T13:48:20;29.30;54.40
4314;DHT22;2170;48.794;9.182;2023-06-14T13:50:53;29.70;54.50
4314;DHT22;2170;48.794;9.182;2023-06-14T13:53:37;30.30;53.70
4314;DHT22;2170;48.794;9.182;2023-06-14T13:56:13;30.20;53.40
4314;DHT22;2170;48.794;9.182;2023-06-14T13:59:06;30.10;53.40
4314;DHT22;2170;48.794;9.182;2023-06-14T14:01:34;30.40;52.70
4314;DHT22;2170;48.794;9.182;2023-06-14T14:04:03;30.80;52.10
4314;DHT22;2170;48.794;9.182;2023-06-14T14:06:41;30.40;52.60
4314;DHT22;2170;48.794;9.182;2023-06-14T14:09:13;30.30;52.80
4314;DHT22;2170;48.794;9.182;2023-06-14T14:11:51;29.70;53.70
4314;DHT22;2170;48.794;9.182;2023-06-14T14:14:21;29.00;55.50
4314;DHT22;2170;48.794;9.182;2023-06-14T14:16:55;29.60;54.40
4314;DHT22;2170;48.794;9.182;2023-06-14T14:19:33;29.10;54.70
4314;DHT22;2170;48.794;9.182;2023-06-14T14:22:07;28.70;55.50
4314;DHT22;2170;48.794;9.182;2023-06-14T14:24:38;27.80;57.90
4314;DHT22;2170;48.794;9.182;2023-06-14T14:27:14;29.10;57.20
4314;DHT22;2170;48.794;9.182;2023-06-14T14:29:46;30.00;55.00
4314;DHT22;2170;48.794;9.182;2023-06-14T14:32:20;29.90;54.90
4314;DHT22;2170;48.794;9.182;2023-06-14T14:35:04;29.70;55.00
4314;DHT22;2170;48.794;9.182;2023-06-14T14:37:41;29.50;55.20
4314;DHT22;2170;48.794;9.182;2023-06-14T14:40:14;28.80;55.30
4314;DHT22;2170;48.794;9.182;2023-06-14T14:42:53;28.40;55.80
4314;DHT22;2170;48.794;9.182;2023-06-14T14:45:22;29.00;56.00
4314;DHT22;2170;48.794;9.182;2023-06-14T14:47:51;29.00;55.10
4314;DHT22;2170;48.794;9.182;2023-06-14T14:50:24;29.60;55.30
4314;DHT22;2170;48.794;9.182;2023-06-14T14:53:04;29.70;54.30
4314;DHT22;2170;48.794;9.182;2023-06-14T14:55:40;30.10;53.50
4314;DHT22;2170;48.794;9.182;2023-06-14T14:58:16;30.20;52.80
4314;DHT22;2170;48.794;9.182;2023-06-14T15:00:49;30.40;52.60
4314;DHT22;2170;48.794;9.182;2023-06-14T15:03:21;30.40;52.20
4314;DHT22;2170;48.794;9.182;2023-06-14T15:05:52;30.60;52.10
4314;DHT22;2170;48.794;9.182;2023-06-14T15:08:21;29.40;52.90
4314;DHT22;2170;48.794;9.182;2023-06-14T15:10:49;29.20;55.00
4314;DHT22;2170;48.794;9.182;2023-06-14T15:13:22;28.90;55.50
4314;DHT22;2170;48.794;9.182;2023-06-14T15:15:57;28.90;55.40
4314;DHT22;2170;48.794;9.182;2023-06-14T15:18:25;29.00;55.30
4314;DHT22;2170;48.794;9.182;2023-06-14T15:20:53;28.90;55.00
4314;DHT22;2170;48.794;9.182;2023-06-14T15:23:28;29.40;55.60
4314;DHT22;2170;48.794;9.182;2023-06-14T15:26:02;29.60;54.30
4314;DHT22;2170;48.794;9.182;2023-06-14T15:28:36;29.50;55.00
4314;DHT22;2170;48.794;9.182;2023-06-14T15:31:26;29.40;54.80
4314;DHT22;2170;48.794;9.182;2023-06-14T15:33:58;29.10;55.10
4314;DHT22;2170;48.794;9.182;2023-06-14T15:36:32;29.20;55.20
4314;DHT22;2170;48.794;9.182;2023-06-14T15:39:30;28.90;55.40
4314;DHT22;2170;48.794;9.182;2023-06-14T15:42:03;29.50;54.70
4314;DHT22;2170;48.794;9.182;2023-06-14T15:44:38;29.40;54.80
4314;DHT22;2170;48.794;9.182;2023-06-14T15:47:10;29.10;55.20
4314;DHT22;2170;48.794;9.182;2023-06-14T15:49:43;28.70;55.20
4314;DHT22;2170;48.794;9.182;2023-06-14T15:52:14;28.10;56.10
4314;DHT22;2170;48.794;9.182;2023-06-14T15:54:46;28.30;56.20
4314;DHT22;2170;48.794;9.182;2023-06-14T15:57:14;28.20;56.20
4314;DHT22;2170;48.794;9.182;2023-06-14T15:59:46;27.90;56.20
4314;DHT22;2170;48.794;9.182;2023-06-14T16:02:15;27.90;56.00
4314;DHT22;2170;48.794;9.182;2023-06-14T16:04:49;28.00;56.40
4314;DHT22;2170;48.794;9.182;2023-06-14T16:07:27;28.30;55.70
4314;DHT22;2170;48.794;9.182;2023-06-14T16:10:00;28.40;55.60
4314;DHT22;2170;48.794;9.182;2023-06-14T16:12:33;28.40;55.40
4314;DHT22;2170;48.794;9.182;2023-06-14T16:15:08;29.00;54.20
4314;DHT22;2170;48.794;9.182;2023-06-14T16:17:43;29.20;54.20
4314;DHT22;2170;48.794;9.182;2023-06-14T16:20:18;28.00;53.90
4314;DHT22;2170;48.794;9.182;2023-06-14T16:22:50;27.60;55.70
4314;DHT22;2170;48.794;9.182;2023-06-14T16:25:23;27.80;55.30
4314;DHT22;2170;48.794;9.182;2023-06-14T16:27:52;27.30;56.20
4314;DHT22;2170;48.794;9.182;2023-06-14T16:30:29;27.80;56.00
4314;DHT22;2170;48.794;9.182;2023-06-14T16:32:58;27.50;56.80
4314;DHT22;2170;48.794;9.182;2023-06-14T16:35:26;27.20;57.00
4314;DHT22;2170;48.794;9.182;2023-06-14T16:37:55;27.30;57.20
4314;DHT22;2170;48.794;9.182;2023-06-14T16:40:25;27.60;57.00
4314;DHT22;2170;48.794;9.182;2023-06-14T16:42:54;28.00;56.80
4314;DHT22;2170;48.794;9.182;2023-06-14T16:45:22;27.20;57.30
4314;DHT22;2170;48.794;9.182;2023-06-14T16:47:55;26.90;58.00
4314;DHT22;2170;48.794;9.182;2023-06-14T16:50:26;26.90;58.30
4314;DHT22;2170;48.794;9.182;2023-06-14T16:52:58;27.20;58.20
4314;DHT22;2170;48.794;9.182;2023-06-14T16:55:30;27.00;58.40
4314;DHT22;2170;48.794;9.182;2023-06-14T16:58:22;27.30;58.10
4314;DHT22;2170;48.794;9.182;2023-06-14T17:00:55;27.30;57.90
4314;DHT22;2170;48.794;9.182;2023-06-14T17:03:28;27.00;58.00
4314;DHT22;2170;48.794;9.182;2023-06-14T17:06:19;27.20;57.50
4314;DHT22;2170;48.794;9.182;2023-06-14T17:08:51;27.20;57.60
4314;DHT22;2170;48.794;9.182;2023-06-14T17:11:28;26.90;58.20
4314;DHT22;2170;48.794;9.182;2023-06-14T17:17:15;26.90;59.10
4314;DHT22;2170;48.794;9.182;2023-06-14T17:20:04;26.70;59.90
4314;DHT22;2170;48.794;9.182;2023-06-14T17:22:43;26.80;59.30
4314;DHT22;2170;48.794;9.182;2023-06-14T17:25:38;26.60;60.10
4314;DHT22;2170;48.794;9.182;2023-06-14T17:28:24;26.40;61.20
4314;DHT22;2170;48.794;9.182;2023-06-14T17:31:08;26.30;61.10
4314;DHT22;2170;48.794;9.182;2023-06-14T17:34:00;26.40;61.20
4314;DHT22;2170;48.794;9.182;2023-06-14T17:36:33;26.50;61.10
4314;DHT22;2170;48.794;9.182;2023-06-14T17:39:17;26.80;61.00
4314;DHT22;2170;48.794;9.182;2023-06-14T17:42:05;26.00;60.70
4314;DHT22;2170;48.794;9.182;2023-06-14T17:44:33;26.40;60.40
4314;DHT22;2170;48.794;9.182;2023-06-14T17:47:08;26.20;60.30
4314;DHT22;2170;48.794;9.182;2023-06-14T17:49:53;26.20;60.30
4314;DHT22;2170;48.794;9.182;2023-06-14T17:52:31;26.20;60.30
4314;DHT22;2170;48.794;9.182;2023-06-14T17:55:06;26.00;60.70
4314;DHT22;2170;48.794;9.182;2023-06-14T17:57:40;26.20;60.80
4314;DHT22;2170;48.794;9.182;2023-06-14T18:00:19;26.00;60.70
4314;DHT22;2170;48.794;9.182;2023-06-14T18:02:48;26.30;60.30
4314;DHT22;2170;48.794;9.182;2023-06-14T18:05:18;26.30;60.60
4314;DHT22;2170;48.794;9.182;2023-06-14T18:07:54;25.70;61.10
4314;DHT22;2170;48.794;9.182;2023-06-14T18:10:24;25.40;62.50
4314;DHT22;2170;48.794;9.182;2023-06-14T18:13:05;25.30;62.90
4314;DHT22;2170;48.794;9.182;2023-06-14T18:16:01;25.20;63.80
4314;DHT22;2170;48.794;9.182;2023-06-14T18:18:39;24.70;65.20